Time;durP1;ratioP1;P1;durP2;ratioP2;P2;SDS_P1;SDS_P2;PMS_P1;PMS_P2;Temp;Humidity;BMP_temperature;BMP_pressure;BME280_temperature;BME280_humidity;BME280_pressure;Samples;Min_cycle;Max_cycle;Signal;HPM_P1;HPM_P2
2022/09/15 00:03:04;;;;;;;0.10;0.10;;;;;;;13.30;100.00;100276.25;10332772;28;20422;-78
2022/09/15 00:08:04;;;;;;;0.10;0.10;;;;;;;13.24;100.00;100274.28;10335287;28;20022;-78
2022/09/15 00:13:05;;;;;;;0.10;0.10;;;;;;;13.22;100.00;100281.66;10332254;28;20026;-77
2022/09/15 00:18:06;;;;;;;0.10;0.10;;;;;;;13.23;100.00;100275.28;10327324;28;20769;-78
2022/09/15 00:23:06;;;;;;;0.10;0.10;;;;;;;13.21;100.00;100263.97;10310337;28;20043;-76
2022/09/15 00:28:06;;;;;;;0.10;0.10;;;;;;;13.19;100.00;100255.31;10310429;28;20080;-77
2022/09/15 00:33:07;;;;;;;0.10;0.10;;;;;;;13.19;100.00;100266.00;10291770;28;20548;-75
2022/09/15 00:38:09;;;;;;;0.10;0.10;;;;;;;13.19;100.00;100264.16;10317181;28;20362;-76
2022/09/15 00:43:11;;;;;;;0.10;0.10;;;;;;;13.19;100.00;100256.13;10316840;28;20811;-74
2022/09/15 00:48:16;;;;;;;0.00;0.00;;;;;;;13.17;100.00;100244.78;10295661;28;20042;-75
2022/09/15 00:53:18;;;;;;;0.10;0.10;;;;;;;13.18;100.00;100253.63;10307887;28;20027;-77
2022/09/15 00:58:32;;;;;;;0.10;0.10;;;;;;;13.20;100.00;100267.66;10325034;28;20113;-77
2022/09/15 01:03:33;;;;;;;0.10;0.10;;;;;;;13.21;100.00;100254.09;10328890;28;20129;-77
2022/09/15 01:08:39;;;;;;;0.00;0.00;;;;;;;13.25;100.00;100255.41;10319994;28;20019;-77
2022/09/15 01:13:40;;;;;;;0.10;0.10;;;;;;;13.29;100.00;100251.34;10290033;28;20062;-77
2022/09/15 01:19:03;;;;;;;0.10;0.10;;;;;;;13.36;100.00;100260.25;10321253;28;20105;-76
2022/09/15 01:24:22;;;;;;;0.10;0.10;;;;;;;13.38;100.00;100260.06;10309113;28;20030;-77
2022/09/15 01:29:37;;;;;;;0.10;0.10;;;;;;;13.42;100.00;100263.19;10288356;28;20102;-77
2022/09/15 01:34:51;;;;;;;0.10;0.10;;;;;;;13.40;100.00;100259.84;10300747;28;20015;-76
2022/09/15 01:39:52;;;;;;;0.10;0.10;;;;;;;13.36;100.00;100260.25;10327446;28;20022;-76
2022/09/15 01:45:15;;;;;;;0.10;0.10;;;;;;;13.35;100.00;100253.25;10327414;28;20034;-77
2022/09/15 01:50:25;;;;;;;0.10;0.10;;;;;;;13.35;100.00;100252.41;10316611;28;20011;-77
2022/09/15 01:55:39;;;;;;;0.10;0.10;;;;;;;13.36;100.00;100254.06;10327375;28;20397;-77
2022/09/15 02:00:48;;;;;;;0.10;0.10;;;;;;;13.38;100.00;100265.41;10289870;28;20117;-77
2022/09/15 02:06:01;;;;;;;0.10;0.10;;;;;;;13.42;100.00;100271.22;10287336;28;20029;-77
2022/09/15 02:11:29;;;;;;;0.10;0.10;;;;;;;13.40;100.00;100271.38;10285482;28;20033;-77
2022/09/15 02:16:34;;;;;;;0.10;0.10;;;;;;;13.35;100.00;100268.44;10284839;28;20041;-76
2022/09/15 02:21:39;;;;;;;0.10;0.10;;;;;;;13.32;100.00;100277.69;10313058;28;20370;-76
2022/09/15 02:26:42;;;;;;;0.10;0.10;;;;;;;13.30;100.00;100281.59;10327350;28;20758;-76
2022/09/15 02:31:44;;;;;;;0.10;0.10;;;;;;;13.27;100.00;100279.28;10321533;28;20398;-77
2022/09/15 02:36:45;;;;;;;0.10;0.10;;;;;;;13.22;100.00;100260.28;10304539;28;20030;-76
2022/09/15 02:41:47;;;;;;;0.00;0.00;;;;;;;13.16;100.00;100255.69;10317382;22;20048;-77
2022/09/15 02:46:48;;;;;;;0.17;0.17;;;;;;;13.11;100.00;100266.94;10357776;28;20056;-77
2022/09/15 02:51:48;;;;;;;0.10;0.10;;;;;;;13.10;100.00;100268.78;10355218;28;20091;-77
2022/09/15 02:56:49;;;;;;;0.00;0.00;;;;;;;13.10;100.00;100279.50;10366400;28;20389;-77
2022/09/15 03:01:50;;;;;;;0.08;0.08;;;;;;;13.14;100.00;100287.94;10355599;28;20366;-78
2022/09/15 03:06:50;;;;;;;0.10;0.10;;;;;;;13.14;100.00;100286.09;10351797;28;20477;-78
2022/09/15 03:11:51;;;;;;;0.10;0.10;;;;;;;13.13;100.00;100288.97;10326679;28;20022;-78
2022/09/15 03:16:52;;;;;;;0.10;0.10;;;;;;;13.07;100.00;100279.03;10327557;28;20023;-77
2022/09/15 03:21:52;;;;;;;0.10;0.10;;;;;;;13.00;100.00;100280.78;10325064;28;20034;-77
2022/09/15 03:26:53;;;;;;;0.10;0.10;;;;;;;12.97;100.00;100284.66;10351511;28;20515;-77
2022/09/15 03:31:53;;;;;;;0.10;0.10;;;;;;;12.96;100.00;100280.34;10371682;28;20523;-77
2022/09/15 03:36:53;;;;;;;0.10;0.10;;;;;;;12.93;100.00;100279.91;10346216;28;20277;-77
2022/09/15 03:41:54;;;;;;;0.10;0.10;;;;;;;12.90;100.00;100284.59;10372262;28;20025;-77
2022/09/15 03:46:54;;;;;;;0.10;0.10;;;;;;;12.86;100.00;100277.97;10372610;28;20494;-77
2022/09/15 03:51:55;;;;;;;0.10;0.10;;;;;;;12.88;100.00;100280.44;10337587;28;20057;-77
2022/09/15 03:56:56;;;;;;;0.10;0.10;;;;;;;12.87;100.00;100289.50;10354092;28;20287;-77
2022/09/15 04:01:56;;;;;;;0.10;0.10;;;;;;;12.83;100.00;100273.00;10371463;28;20465;-77
2022/09/15 04:06:56;;;;;;;0.10;0.10;;;;;;;12.82;100.00;100266.00;10371416;28;20411;-77
2022/09/15 04:11:56;;;;;;;0.10;0.10;;;;;;;12.80;100.00;100265.38;10366353;28;20473;-77
2022/09/15 04:16:57;;;;;;;0.10;0.10;;;;;;;12.77;100.00;100254.19;10359567;28;20031;-77
2022/09/15 04:21:57;;;;;;;0.10;0.10;;;;;;;12.73;100.00;100266.28;10358107;28;20491;-77
2022/09/15 04:26:57;;;;;;;0.10;0.10;;;;;;;12.72;100.00;100259.31;10373023;28;20026;-77
2022/09/15 04:31:58;;;;;;;0.10;0.10;;;;;;;12.71;100.00;100257.63;10348784;28;20494;-77
2022/09/15 04:36:58;;;;;;;0.10;0.10;;;;;;;12.70;100.00;100251.47;10332433;28;20023;-77
2022/09/15 04:41:58;;;;;;;0.10;0.10;;;;;;;12.71;100.00;100262.97;10331789;28;20093;-77
2022/09/15 04:46:58;;;;;;;0.10;0.10;;;;;;;12.69;100.00;100258.66;10314398;28;20052;-77
2022/09/15 04:51:59;;;;;;;0.10;0.10;;;;;;;12.69;100.00;100245.28;10364241;28;20269;-77
2022/09/15 04:56:59;;;;;;;0.10;0.10;;;;;;;12.69;100.00;100247.16;10355375;28;20033;-77
2022/09/15 05:01:59;;;;;;;0.05;0.05;;;;;;;12.67;100.00;100246.50;10371209;28;20029;-77
2022/09/15 05:07:00;;;;;;;0.10;0.10;;;;;;;12.68;100.00;100251.66;10370056;28;20521;-77
2022/09/15 05:12:00;;;;;;;0.10;0.10;;;;;;;12.69;100.00;100253.31;10326204;28;20040;-77
2022/09/15 05:17:00;;;;;;;0.10;0.10;;;;;;;12.70;100.00;100259.47;10334637;28;20461;-77
2022/09/15 05:22:01;;;;;;;0.10;0.10;;;;;;;12.71;100.00;100252.28;10317076;28;20049;-77
2022/09/15 05:27:01;;;;;;;0.10;0.10;;;;;;;12.71;100.00;100260.31;10329264;28;20033;-77
2022/09/15 05:32:02;;;;;;;0.10;0.10;;;;;;;12.73;100.00;100255.59;10328689;28;20297;-77
2022/09/15 05:37:02;;;;;;;0.10;0.10;;;;;;;12.91;100.00;100266.72;10329623;28;20292;-77
2022/09/15 05:42:02;;;;;;;0.10;0.10;;;;;;;13.27;100.00;100269.41;10311925;28;20478;-77
2022/09/15 05:47:03;;;;;;;0.10;0.10;;;;;;;13.24;100.00;100252.91;10329364;28;20010;-77
2022/09/15 05:52:04;;;;;;;0.10;0.10;;;;;;;13.16;100.00;100250.34;10336625;28;20539;-77
2022/09/15 05:57:04;;;;;;;0.10;0.10;;;;;;;13.43;100.00;100265.66;10312554;28;20516;-77
2022/09/15 06:02:05;;;;;;;0.00;0.00;;;;;;;14.64;100.00;100270.88;10329056;28;20042;-77
2022/09/15 06:07:05;;;;;;;0.10;0.10;;;;;;;15.07;100.00;100268.75;10329449;28;20378;-77
2022/09/15 06:12:06;;;;;;;0.10;0.10;;;;;;;14.79;100.00;100295.66;10328843;28;20060;-77
2022/09/15 06:17:06;;;;;;;0.10;0.10;;;;;;;14.30;100.00;100290.44;10329273;28;20037;-76
2022/09/15 06:22:06;;;;;;;0.10;0.10;;;;;;;14.00;100.00;100296.81;10327433;28;20022;-77
2022/09/15 06:27:07;;;;;;;0.00;0.00;;;;;;;13.93;100.00;100287.06;10351540;28;20265;-77
2022/09/15 06:32:07;;;;;;;0.10;0.10;;;;;;;14.19;100.00;100283.75;10368527;28;20026;-77
2022/09/15 06:37:08;;;;;;;0.10;0.10;;;;;;;15.73;100.00;100286.84;10368995;28;20036;-77
2022/09/15 06:42:09;;;;;;;0.08;0.08;;;;;;;16.03;100.00;100283.75;10367402;28;20034;-77
2022/09/15 06:47:14;;;;;;;0.10;0.10;;;;;;;16.04;100.00;100277.34;10368169;28;20053;-77
2022/09/15 06:52:14;;;;;;;0.10;0.10;;;;;;;16.03;100.00;100289.13;10331463;28;20037;-77
2022/09/15 06:57:14;;;;;;;0.10;0.10;;;;;;;16.64;100.00;100290.63;10327794;28;20044;-77
2022/09/15 07:02:14;;;;;;;0.10;0.10;;;;;;;17.99;100.00;100312.06;10327672;28;20097;-77
2022/09/15 07:07:15;;;;;;;0.00;0.00;;;;;;;16.98;100.00;100311.03;10318530;28;20473;-78
2022/09/15 07:12:15;;;;;;;0.10;0.10;;;;;;;16.23;100.00;100310.56;10318523;28;20037;-77
2022/09/15 07:17:15;;;;;;;0.10;0.10;;;;;;;15.85;100.00;100300.47;10317913;28;20030;-77
2022/09/15 07:22:15;;;;;;;0.10;0.10;;;;;;;16.39;100.00;100302.09;10334268;28;20022;-77
2022/09/15 07:27:16;;;;;;;0.10;0.10;;;;;;;18.08;100.00;100316.13;10317127;28;20444;-77
2022/09/15 07:32:16;;;;;;;0.10;0.10;;;;;;;19.70;100.00;100313.00;10333662;28;20030;-77
2022/09/15 07:37:17;;;;;;;0.00;0.00;;;;;;;20.45;100.00;100320.47;10371158;28;20029;-77
2022/09/15 07:42:17;;;;;;;0.10;0.10;;;;;;;20.60;100.00;100320.00;10374575;28;20040;-76
2022/09/15 07:47:17;;;;;;;0.00;0.00;;;;;;;21.84;100.00;100324.00;10336824;28;20015;-77
2022/09/15 07:52:17;;;;;;;0.00;0.00;;;;;;;21.58;100.00;100323.56;10331068;28;20148;-77
2022/09/15 07:57:18;;;;;;;0.00;0.00;;;;;;;20.53;100.00;100338.22;10333373;28;20023;-77
2022/09/15 08:02:19;;;;;;;0.00;0.00;;;;;;;20.20;100.00;100345.03;10330469;28;20105;-76
2022/09/15 08:07:20;;;;;;;0.00;0.00;;;;;;;21.54;100.00;100341.38;10351935;28;20049;-77
2022/09/15 08:12:20;;;;;;;0.10;0.10;;;;;;;22.55;100.00;100344.13;10372874;28;20801;-77
2022/09/15 08:17:20;;;;;;;0.05;0.05;;;;;;;23.70;100.00;100346.03;10372733;28;20034;-77
2022/09/15 08:22:21;;;;;;;0.00;0.00;;;;;;;24.22;83.24;100348.09;10349308;28;20401;-77
2022/09/15 08:27:21;;;;;;;0.10;0.10;;;;;;;24.29;78.73;100354.16;10372183;28;20035;-77
2022/09/15 08:32:21;;;;;;;0.10;0.10;;;;;;;23.35;82.57;100352.72;10371115;28;20374;-76
2022/09/15 08:37:22;;;;;;;0.10;0.10;;;;;;;23.61;84.08;100358.44;10371440;28;20316;-77
2022/09/15 08:42:25;;;;;;;0.00;0.00;;;;;;;23.52;77.89;100347.19;10380594;22;20545;-78
2022/09/15 08:47:43;;;;;;;0.00;0.00;;;;;;;23.87;76.93;100360.34;10350372;28;20384;-78
2022/09/15 08:52:52;;;;;;;0.10;0.10;;;;;;;24.17;73.79;100342.63;10365349;28;20068;-79
2022/09/15 08:57:52;;;;;;;0.00;0.00;;;;;;;24.37;75.43;100347.38;10370233;28;20065;-78
2022/09/15 09:03:20;;;;;;;0.10;0.10;;;;;;;23.09;74.25;100343.47;10369752;28;20041;-79
2022/09/15 09:08:39;;;;;;;0.00;0.00;;;;;;;21.60;78.00;100353.94;10352470;28;20399;-79
2022/09/15 09:14:07;;;;;;;0.00;0.00;;;;;;;19.75;86.98;100367.19;10369800;28;20022;-78
2022/09/15 09:19:19;;;;;;;0.00;0.00;;;;;;;18.14;100.00;100381.81;10315910;28;20044;-78
2022/09/15 09:24:36;;;;;;;0.00;0.00;;;;;;;17.39;100.00;100369.00;10328201;28;20037;-78
2022/09/15 09:29:41;;;;;;;0.10;0.10;;;;;;;17.41;100.00;100375.81;10366446;28;20030;-77
2022/09/15 09:34:46;;;;;;;0.00;0.00;;;;;;;18.53;100.00;100380.66;10368565;28;20029;-77
2022/09/15 09:39:47;;;;;;;0.10;0.10;;;;;;;18.86;100.00;100372.22;10368631;28;20104;-78
2022/09/15 09:44:48;;;;;;;0.10;0.10;;;;;;;19.10;100.00;100375.06;10368250;28;20100;-78
2022/09/15 09:49:48;;;;;;;0.00;0.00;;;;;;;19.86;95.35;100376.34;10357163;28;20097;-78
2022/09/15 09:54:59;;;;;;;0.00;0.00;;;;;;;18.90;86.17;100369.91;10366906;28;20206;-77
2022/09/15 09:59:59;;;;;;;0.00;0.00;;;;;;;18.14;96.72;100369.16;10367900;28;20473;-77
2022/09/15 10:05:04;;;;;;;0.00;0.00;;;;;;;18.15;98.47;100369.97;10367932;28;20024;-78
2022/09/15 10:10:05;;;;;;;0.00;0.00;;;;;;;18.23;97.54;100372.41;10350278;28;20265;-79
2022/09/15 10:15:19;;;;;;;0.00;0.00;;;;;;;18.48;88.72;100380.50;10348573;28;20437;-78
2022/09/15 10:20:23;;;;;;;0.00;0.00;;;;;;;19.09;85.17;100370.75;10362925;28;20085;-78
2022/09/15 10:25:25;;;;;;;0.00;0.00;;;;;;;19.42;83.19;100371.13;10367539;28;20037;-78
2022/09/15 10:30:26;;;;;;;0.05;0.05;;;;;;;19.61;87.74;100352.19;10368258;28;20014;-78
2022/09/15 10:35:31;;;;;;;0.10;0.10;;;;;;;19.90;87.94;100361.34;10367060;28;20034;-78
2022/09/15 10:40:53;;;;;;;0.10;0.10;;;;;;;20.01;85.91;100351.56;10373843;28;20026;-78
2022/09/15 10:46:00;;;;;;;0.10;0.10;;;;;;;19.24;83.43;100363.06;10375224;28;20033;-78
2022/09/15 10:51:06;;;;;;;0.00;0.00;;;;;;;18.79;88.96;100355.28;10370686;28;20387;-78
2022/09/15 10:56:22;;;;;;;0.10;0.10;;;;;;;18.60;89.93;100367.91;10357132;28;20021;-78
2022/09/15 11:01:31;;;;;;;0.10;0.10;;;;;;;18.61;96.41;100376.81;10374743;28;20045;-77
2022/09/15 11:06:40;;;;;;;0.00;0.00;;;;;;;18.48;94.07;100380.50;10374862;28;20449;-78
2022/09/15 11:11:51;;;;;;;0.10;0.10;;;;;;;18.17;95.08;100381.38;10356536;28;20551;-78
2022/09/15 11:17:08;;;;;;;0.00;0.00;;;;;;;18.50;99.97;100383.75;10374495;28;20037;-77
2022/09/15 11:22:23;;;;;;;0.00;0.00;;;;;;;19.40;97.46;100370.53;10368818;28;20540;-76
2022/09/15 11:27:42;;;;;;;0.10;0.10;;;;;;;20.11;93.28;100374.28;10374225;28;20497;-78
2022/09/15 11:33:01;;;;;;;0.10;0.10;;;;;;;19.90;90.55;100362.16;10373696;28;20370;-77
2022/09/15 11:38:37;;;;;;;0.00;0.00;;;;;;;19.49;92.32;100371.03;10355968;28;20168;-77
2022/09/15 11:43:49;;;;;;;0.00;0.00;;;;;;;19.11;89.59;100385.66;10347366;28;20053;-77
2022/09/15 11:49:10;;;;;;;0.00;0.00;;;;;;;18.86;85.07;100385.72;10369576;28;20018;-77
2022/09/15 11:54:28;;;;;;;0.00;0.00;;;;;;;18.78;88.97;100381.44;10368242;28;20026;-78
2022/09/15 11:59:42;;;;;;;0.00;0.00;;;;;;;18.87;82.70;100384.66;10354772;28;20030;-77
2022/09/15 12:05:16;;;;;;;0.00;0.00;;;;;;;18.81;78.83;100385.56;10371979;28;20018;-77
2022/09/15 12:10:22;;;;;;;0.00;0.00;;;;;;;18.20;79.23;100384.44;10349576;28;20029;-77
2022/09/15 12:15:26;;;;;;;0.10;0.10;;;;;;;17.78;82.23;100376.06;10371802;28;20489;-77
2022/09/15 12:20:42;;;;;;;0.00;0.00;;;;;;;17.84;82.79;100367.09;10367230;28;20109;-78
2022/09/15 12:25:46;;;;;;;0.00;0.00;;;;;;;18.07;79.93;100369.22;10371508;28;20065;-78
2022/09/15 12:30:47;;;;;;;0.08;0.08;;;;;;;18.52;83.86;100382.50;10353913;28;20555;-78
2022/09/15 12:35:47;;;;;;;0.00;0.00;;;;;;;18.96;81.61;100387.88;10370712;28;20021;-77
2022/09/15 12:40:58;;;;;;;0.00;0.00;;;;;;;19.14;83.70;100384.34;10370599;28;20024;-79
2022/09/15 12:46:00;;;;;;;0.10;0.10;;;;;;;19.32;84.68;100381.66;10370128;28;20502;-79
2022/09/15 12:51:03;;;;;;;0.00;0.00;;;;;;;19.08;82.69;100394.22;10365271;28;20149;-79
2022/09/15 12:56:09;;;;;;;0.10;0.10;;;;;;;18.62;83.39;100419.78;10352346;28;20029;-78
2022/09/15 13:01:21;;;;;;;0.10;0.10;;;;;;;17.86;100.00;100428.88;10352571;28;20026;-79
2022/09/15 13:06:26;;;;;;;0.00;0.00;;;;;;;17.05;100.00;100435.59;10364668;28;20026;-77
2022/09/15 13:11:41;;;;;;;0.10;0.10;;;;;;;16.22;100.00;100446.81;10369359;28;20052;-77
2022/09/15 13:17:03;;;;;;;0.00;0.00;;;;;;;15.75;100.00;100428.97;10349610;28;20122;-76
2022/09/15 13:22:19;;;;;;;0.10;0.10;;;;;;;15.80;100.00;100427.31;10358605;28;20114;-76
2022/09/15 13:27:28;;;;;;;0.10;0.10;;;;;;;15.98;100.00;100423.22;10369223;28;20021;-76
2022/09/15 13:32:38;;;;;;;0.00;0.00;;;;;;;16.27;100.00;100413.94;10366795;28;20026;-75
2022/09/15 13:38:06;;;;;;;0.10;0.10;;;;;;;16.54;100.00;100406.69;10351197;28;20311;-75
2022/09/15 13:43:09;;;;;;;0.00;0.00;;;;;;;16.84;100.00;100404.41;10350319;28;20489;-76
2022/09/15 13:48:23;;;;;;;0.10;0.10;;;;;;;17.19;100.00;100402.22;10366431;28;20022;-73
2022/09/15 13:53:36;;;;;;;0.00;0.00;;;;;;;17.08;100.00;100391.31;10357757;28;20065;-73
2022/09/15 13:58:40;;;;;;;0.00;0.00;;;;;;;16.98;100.00;100389.88;10349749;28;20120;-73
2022/09/15 14:03:42;;;;;;;0.00;0.00;;;;;;;16.79;100.00;100392.63;10367058;28;20025;-73
2022/09/15 14:08:47;;;;;;;0.00;0.00;;;;;;;16.64;97.83;100406.25;10367886;28;20014;-72
2022/09/15 14:13:49;;;;;;;0.10;0.10;;;;;;;16.64;96.95;100396.34;10366749;28;20126;-73
2022/09/15 14:18:52;;;;;;;0.10;0.10;;;;;;;17.05;99.76;100392.56;10364782;28;20029;-73
2022/09/15 14:23:56;;;;;;;0.00;0.00;;;;;;;17.29;95.67;100414.41;10364801;28;20104;-73
2022/09/15 14:29:06;;;;;;;0.00;0.00;;;;;;;16.18;100.00;100436.69;10368105;28;20032;-74
2022/09/15 14:34:18;;;;;;;0.00;0.00;;;;;;;14.99;100.00;100426.34;10366993;28;20079;-74
2022/09/15 14:39:21;;;;;;;0.10;0.10;;;;;;;14.71;100.00;100411.94;10366817;28;20053;-74
2022/09/15 14:44:39;;;;;;;0.10;0.10;;;;;;;14.61;100.00;100414.16;10378136;23;20786;-74
2022/09/15 14:49:39;;;;;;;0.10;0.10;;;;;;;14.43;100.00;100414.59;10392477;28;20061;-74
2022/09/15 14:54:40;;;;;;;0.10;0.10;;;;;;;14.45;100.00;100422.44;10405424;28;20077;-73
2022/09/15 14:59:51;;;;;;;0.10;0.10;;;;;;;14.46;100.00;100424.94;10407535;28;20091;-73
2022/09/15 15:04:58;;;;;;;0.10;0.10;;;;;;;14.45;100.00;100417.06;10406847;28;20024;-74
2022/09/15 15:10:02;;;;;;;0.10;0.10;;;;;;;14.32;100.00;100412.44;10407176;28;20368;-73
2022/09/15 15:15:04;;;;;;;0.10;0.10;;;;;;;14.29;100.00;100412.00;10388765;28;20555;-73
2022/09/15 15:20:04;;;;;;;0.10;0.10;;;;;;;14.43;100.00;100411.09;10393434;28;20480;-73
2022/09/15 15:25:31;;;;;;;0.10;0.10;;;;;;;14.48;100.00;100416.69;10387619;28;20023;-73
2022/09/15 15:30:43;;;;;;;0.10;0.10;;;;;;;14.47;100.00;100417.72;10413979;28;20104;-73
2022/09/15 15:35:44;;;;;;;0.10;0.10;;;;;;;14.52;100.00;100417.19;10413474;28;20605;-74
2022/09/15 15:40:45;;;;;;;0.10;0.10;;;;;;;14.54;100.00;100415.94;10413885;28;20108;-74
2022/09/15 15:45:49;;;;;;;0.10;0.10;;;;;;;14.62;100.00;100410.44;10392526;28;20165;-74
2022/09/15 15:50:50;;;;;;;0.10;0.10;;;;;;;14.77;100.00;100412.19;10387252;28;20028;-73
2022/09/15 15:55:52;;;;;;;0.10;0.10;;;;;;;14.98;100.00;100413.94;10380784;28;20104;-74
2022/09/15 16:00:58;;;;;;;0.00;0.00;;;;;;;15.15;100.00;100413.44;10413549;28;20025;-74
2022/09/15 16:05:59;;;;;;;0.10;0.10;;;;;;;15.16;100.00;100414.25;10412826;28;20111;-74
2022/09/15 16:11:01;;;;;;;0.10;0.10;;;;;;;15.08;100.00;100409.88;10378440;28;20052;-74
2022/09/15 16:16:12;;;;;;;0.10;0.10;;;;;;;14.92;100.00;100396.78;10396023;28;20029;-75
2022/09/15 16:21:20;;;;;;;0.10;0.10;;;;;;;14.88;100.00;100407.09;10406538;28;20048;-75
2022/09/15 16:26:23;;;;;;;0.10;0.10;;;;;;;14.70;100.00;100410.28;10399323;28;20489;-75
2022/09/15 16:31:23;;;;;;;0.10;0.10;;;;;;;14.49;100.00;100405.78;10371133;28;20021;-75
2022/09/15 16:36:24;;;;;;;0.00;0.00;;;;;;;14.36;100.00;100412.88;10370263;28;20029;-75
2022/09/15 16:41:25;;;;;;;0.10;0.10;;;;;;;14.27;100.00;100412.19;10371231;28;20022;-75
2022/09/15 16:46:25;;;;;;;0.10;0.10;;;;;;;14.24;100.00;100417.94;10379565;28;20026;-75
2022/09/15 16:51:26;;;;;;;0.10;0.10;;;;;;;14.17;100.00;100420.56;10403712;28;20028;-75
2022/09/15 16:56:27;;;;;;;0.00;0.00;;;;;;;14.06;100.00;100413.03;10411598;28;20025;-75
2022/09/15 17:01:27;;;;;;;0.10;0.10;;;;;;;13.95;100.00;100424.25;10382520;28;20026;-75
2022/09/15 17:06:28;;;;;;;0.05;0.05;;;;;;;13.82;100.00;100427.66;10369259;28;20480;-77
2022/09/15 17:11:28;;;;;;;0.10;0.10;;;;;;;13.64;100.00;100425.38;10370165;28;20382;-77
2022/09/15 17:16:29;;;;;;;0.10;0.10;;;;;;;13.50;100.00;100420.91;10369906;28;20168;-77
2022/09/15 17:21:29;;;;;;;0.10;0.10;;;;;;;13.34;100.00;100419.28;10393496;28;20267;-77
2022/09/15 17:26:30;;;;;;;0.10;0.10;;;;;;;13.21;100.00;100413.75;10410253;28;20029;-77
2022/09/15 17:31:31;;;;;;;0.10;0.10;;;;;;;13.12;100.00;100410.34;10409497;28;20490;-77
2022/09/15 17:36:32;;;;;;;0.10;0.10;;;;;;;13.01;100.00;100413.47;10386400;28;20558;-77
2022/09/15 17:41:32;;;;;;;0.10;0.10;;;;;;;12.91;100.00;100417.25;10391376;28;20018;-77
2022/09/15 17:46:32;;;;;;;0.00;0.00;;;;;;;12.95;100.00;100430.25;10391681;28;20017;-77
2022/09/15 17:51:34;;;;;;;0.10;0.10;;;;;;;13.03;100.00;100427.47;10403370;28;20024;-77
2022/09/15 17:56:34;;;;;;;0.10;0.10;;;;;;;12.96;100.00;100424.72;10392006;28;20436;-77
2022/09/15 18:01:34;;;;;;;0.10;0.10;;;;;;;12.82;100.00;100436.22;10374141;28;20080;-77
2022/09/15 18:06:35;;;;;;;0.10;0.10;;;;;;;12.64;100.00;100425.88;10388835;28;20010;-76
2022/09/15 18:11:36;;;;;;;0.10;0.10;;;;;;;12.52;100.00;100422.00;10407948;28;20378;-76
2022/09/15 18:16:36;;;;;;;0.05;0.05;;;;;;;12.39;100.00;100422.59;10408538;28;20017;-77
2022/09/15 18:21:36;;;;;;;0.10;0.10;;;;;;;12.32;100.00;100417.16;10402250;28;20022;-77
2022/09/15 18:26:37;;;;;;;0.10;0.10;;;;;;;12.32;100.00;100419.00;10408472;28;20195;-77
2022/09/15 18:31:37;;;;;;;0.10;0.10;;;;;;;12.39;100.00;100420.78;10407662;28;20147;-77
2022/09/15 18:36:39;;;;;;;0.10;0.10;;;;;;;12.48;100.00;100424.22;10384756;28;20075;-77
2022/09/15 18:41:39;;;;;;;0.00;0.00;;;;;;;12.48;100.00;100445.59;10409452;28;20023;-77
2022/09/15 18:46:39;;;;;;;0.10;0.10;;;;;;;12.37;100.00;100446.00;10396086;28;20020;-78
2022/09/15 18:51:40;;;;;;;0.10;0.10;;;;;;;12.25;100.00;100450.94;10411762;28;20081;-76
2022/09/15 18:56:40;;;;;;;0.10;0.10;;;;;;;12.08;100.00;100450.25;10357887;28;20452;-75
2022/09/15 19:01:40;;;;;;;0.00;0.00;;;;;;;11.92;100.00;100440.50;10390713;28;20030;-75
2022/09/15 19:06:41;;;;;;;0.10;0.10;;;;;;;11.83;100.00;100446.88;10417258;28;20027;-75
2022/09/15 19:11:41;;;;;;;0.10;0.10;;;;;;;11.78;100.00;100443.91;10406750;28;20025;-75
2022/09/15 19:16:41;;;;;;;0.03;0.03;;;;;;;11.73;100.00;100457.78;10373889;28;20045;-74
2022/09/15 19:21:41;;;;;;;0.00;0.00;;;;;;;11.71;100.00;100470.44;10375856;28;20498;-74
2022/09/15 19:26:43;;;;;;;0.10;0.10;;;;;;;11.73;100.00;100473.78;10394149;28;20014;-75
2022/09/15 19:31:43;;;;;;;0.10;0.10;;;;;;;11.68;100.00;100470.81;10385822;28;20038;-75
2022/09/15 19:36:43;;;;;;;0.10;0.10;;;;;;;11.53;100.00;100462.72;10362049;28;20034;-74
2022/09/15 19:41:44;;;;;;;0.10;0.10;;;;;;;11.38;100.00;100467.13;10379099;28;20037;-74
2022/09/15 19:46:44;;;;;;;0.10;0.10;;;;;;;11.22;100.00;100459.16;10363985;28;20497;-75
2022/09/15 19:51:44;;;;;;;0.10;0.10;;;;;;;11.08;100.00;100466.91;10355128;28;20775;-75
2022/09/15 19:56:45;;;;;;;0.00;0.00;;;;;;;10.93;100.00;100476.56;10356935;28;20026;-75
2022/09/15 20:01:45;;;;;;;0.10;0.10;;;;;;;10.86;100.00;100476.44;10374260;28;20629;-75
2022/09/15 20:06:46;;;;;;;0.10;0.10;;;;;;;10.77;100.00;100466.78;10374254;28;20531;-74
2022/09/15 20:11:46;;;;;;;0.10;0.10;;;;;;;10.67;100.00;100475.97;10373393;28;20029;-74
2022/09/15 20:16:46;;;;;;;0.00;0.00;;;;;;;10.62;100.00;100473.81;10405996;28;20366;-74
2022/09/15 20:21:47;;;;;;;0.10;0.10;;;;;;;10.60;100.00;100481.13;10401368;28;20668;-74
2022/09/15 20:26:48;;;;;;;0.10;0.10;;;;;;;10.61;100.00;100477.47;10396817;28;20022;-74
2022/09/15 20:31:48;;;;;;;0.00;0.00;;;;;;;10.65;100.00;100479.63;10414169;28;20021;-74
2022/09/15 20:36:49;;;;;;;0.00;0.00;;;;;;;10.62;100.00;100474.63;10413894;28;20026;-74
2022/09/15 20:41:49;;;;;;;0.00;0.00;;;;;;;10.59;100.00;100482.16;10413574;28;20052;-74
2022/09/15 20:46:49;;;;;;;0.10;0.10;;;;;;;10.57;100.00;100471.63;10388650;22;20472;-73
2022/09/15 20:51:50;;;;;;;0.10;0.10;;;;;;;10.63;100.00;100480.78;10372507;28;20025;-74
2022/09/15 20:56:50;;;;;;;0.10;0.10;;;;;;;10.73;100.00;100512.56;10372944;28;20066;-74
2022/09/15 21:01:51;;;;;;;0.10;0.10;;;;;;;10.83;100.00;100494.59;10371866;28;20072;-75
2022/09/15 21:06:51;;;;;;;0.10;0.10;;;;;;;10.83;100.00;100494.59;10373040;28;20457;-73
2022/09/15 21:11:51;;;;;;;0.08;0.08;;;;;;;10.75;100.00;100498.09;10371533;28;20392;-74
2022/09/15 21:16:52;;;;;;;0.10;0.10;;;;;;;10.61;100.00;100480.94;10372194;28;20428;-74
2022/09/15 21:21:53;;;;;;;0.03;0.03;;;;;;;10.51;100.00;100476.81;10370388;28;20049;-73
2022/09/15 21:32:31;;;;;;;0.10;0.10;;;;;;;10.41;100.00;100477.81;10251113;28;20536;-73
2022/09/15 21:37:32;;;;;;;0.00;0.00;;;;;;;10.45;100.00;100477.50;10371004;28;20022;-73
2022/09/15 21:42:33;;;;;;;0.00;0.00;;;;;;;10.49;100.00;100479.63;10370766;28;20022;-73
2022/09/15 21:47:33;;;;;;;0.00;0.00;;;;;;;10.51;100.00;100474.16;10370537;28;20412;-73
2022/09/15 21:52:34;;;;;;;0.00;0.00;;;;;;;10.50;100.00;100480.47;10370474;28;20025;-74
2022/09/15 21:57:35;;;;;;;0.00;0.00;;;;;;;10.47;100.00;100472.81;10370448;28;20372;-74
2022/09/15 22:02:35;;;;;;;0.10;0.10;;;;;;;10.47;100.00;100483.44;10370364;28;20424;-74
2022/09/15 22:07:36;;;;;;;0.10;0.10;;;;;;;10.56;100.00;100493.97;10370479;28;20041;-73
2022/09/15 22:12:36;;;;;;;0.00;0.00;;;;;;;10.63;100.00;100491.44;10369765;28;20072;-74
2022/09/15 22:17:36;;;;;;;0.00;0.00;;;;;;;10.66;100.00;100488.44;10369822;28;20029;-73
2022/09/15 22:22:37;;;;;;;0.10;0.10;;;;;;;10.60;100.00;100492.63;10369728;28;20047;-73
2022/09/15 22:27:37;;;;;;;0.10;0.10;;;;;;;10.51;100.00;100496.28;10369563;28;20476;-74
2022/09/15 22:32:37;;;;;;;0.10;0.10;;;;;;;10.45;100.00;100490.81;10369352;28;20022;-73
2022/09/15 22:37:38;;;;;;;0.00;0.00;;;;;;;10.36;100.00;100490.78;10377654;28;20395;-71
2022/09/15 22:42:38;;;;;;;0.10;0.10;;;;;;;10.28;100.00;100488.13;10377501;28;20028;-73
2022/09/15 22:47:38;;;;;;;0.10;0.10;;;;;;;10.20;100.00;100485.41;10377451;28;20044;-72
2022/09/15 22:52:38;;;;;;;0.03;0.03;;;;;;;10.11;100.00;100487.22;10359821;28;20175;-72
2022/09/15 22:57:40;;;;;;;0.00;0.00;;;;;;;10.03;100.00;100481.91;10377619;28;20076;-73
2022/09/15 23:02:41;;;;;;;0.00;0.00;;;;;;;9.95;100.00;100471.25;10376933;28;20026;-73
2022/09/15 23:07:42;;;;;;;0.03;0.03;;;;;;;9.94;100.00;100478.38;10359266;28;20037;-73
2022/09/15 23:12:42;;;;;;;0.00;0.00;;;;;;;10.04;100.00;100480.09;10358920;28;20049;-73